Tiempo atmosférico en la estación meteorológica de Sitges, Barcelona (54 m.)



Fecha
DESCASC
Temp. máxima en grados centígrados (hora)
DESCASC
Temp. mínima en grados centígrados (hora)
DESCASC
Temp. media en grados centígrados
DESCASC
Racha de viento máxima en m/sg (hora)
DESCASC
Velocidad máxima media en intervalos de 10 minutos(hora)
DESCASC
Precipitaciones diarias en mm
DESCASC
Precipitaciones de 00:00 a 06:00 en mm
DESCASC
Precipitaciones de 06:00 a 12:00 en mm
DESCASC
Precipitaciones de 12:00 a 18:00 en mm
DESCASC
Precipitaciones de 18:00 a 24:00 en mm
DESCASC
08-12-2019 15.2 (13:10) 6.4 (08:00) 10.8 7.78 (23:30) 4.17 (23:20) 0 0 0 0 0
07-12-2019 16.2 (13:50) 7.8 (23:59) 12 7.78 (10:00) 4.17 (10:10) 0 0 0 0 0
06-12-2019 16.3 (13:40) 8.8 (23:20) 12.5 6.94 (00:20) 2.78 (16:50) 0 0 0 0 0
05-12-2019 14.1 (22:20) 11 (00:00) 12.6 12.5 (07:40) 6.39 (03:40) 6.8 2.2 3.8 0.6 0.2
04-12-2019 14.5 (01:00) 11.3 (00:00) 12.9 19.72 (15:30) 8.89 (09:00) 45.2 0 9.2 30.2 5.8
03-12-2019 14.4 (23:59) 7.1 (00:00) 10.7 12.22 (21:10) 5.28 (23:40) 0 0 0 0 0
02-12-2019 14.3 (13:00) 7.3 (00:00) 10.8 4.17 (12:40) 1.67 (12:40) 0 0 0 0 0
01-12-2019 17.7 (14:20) 9.8 (00:00) 13.8 4.72 (21:00) 2.22 (12:50) 0 0 0 0 0
30-11-2019 18 (12:40) 8.8 (00:00) 13.4 3.89 (13:50) 1.94 (11:20) 0 0 0 0 0
29-11-2019 19 (13:20) 11 (00:00) 15 7.5 (05:20) 3.33 (14:50) 0 0 0 0 0
28-11-2019 18.9 (14:40) 10 (00:00) 14.4 10.28 (12:40) 5.28 (13:10) 0 0 0 0 0
27-11-2019 18.4 (12:50) 11.4 (00:00) 14.9 12.78 (10:30) 5.56 (10:10) 0 0 0 0 0
26-11-2019 18.8 (13:10) 8.9 (00:00) 13.8 6.67 (11:40) 2.78 (13:30) 0 0 0 0 0
25-11-2019 16.3 (14:20) 6.7 (00:00) 11.5 4.44 (00:50) 2.22 (11:20) 0 0 0 0 0
24-11-2019 16.9 (13:20) 7.4 (00:00) 12.1 12.5 (00:20) 6.67 (00:20) 0 0 0 0 0
23-11-2019 15.7 (00:00) 9.5 (00:00) 12.6 15 (23:59) 6.67 (15:10) 0.4 0.4 0 0 0
22-11-2019 16.5 (13:30) 9 (00:00) 12.8 8.89 (21:20) 3.33 (23:00) 10.4 0 0.4 0.4 9.6
21-11-2019 15.6 (13:20) 6.7 (00:00) 11.2 7.22 (16:40) 4.17 (17:00) 0 0 0 0 0
20-11-2019 14.6 (14:10) 3.7 (00:00) 9.2 3.61 (12:40) 1.94 (14:20) 0.2 0 0 0 0.2
19-11-2019 12.6 (14:10) 4.5 (00:00) 8.6 8.89 (06:10) 4.44 (03:50) 0 0 0 0 0
18-11-2019 14.3 (14:00) 6.7 (00:00) 10.5 6.94 (03:40) 3.89 (07:10) 0 0 0 0 0
17-11-2019 14.1 (13:30) 4.7 (00:00) 9.4 8.33 (13:50) 3.61 (13:50) 0 0 0 0 0
16-11-2019 14.5 (14:20) 5.4 (00:00) 10 7.78 (21:00) 3.61 (04:30) 0 0 0 0 0
15-11-2019 14 (14:40) 5.1 (00:00) 9.5 8.89 (15:20) 3.61 (15:30) 0 0 0 0 0
14-11-2019 15.1 (06:30) 5.1 (00:00) 10.1 10.56 (05:30) 4.72 (11:10) 8.8 0.6 8.2 0 0
13-11-2019 14.9 (14:50) 7.5 (00:00) 11.2 5.28 (07:10) 3.33 (07:20) 3.4 0 3.2 0.2 0
12-11-2019 17.8 (14:30) 9.1 (00:00) 13.4 9.72 (07:40) 5.83 (07:40) 0 0 0 0 0
11-11-2019 16.4 (14:30) 8.2 (00:10) 12.3 11.94 (07:30) 5.83 (06:50) 0 0 0 0 0

Gráficas

Temp. máximas Temp. mínimas Temp. medias Precipitaciones Rachas de viento máximas Velocidades máximas media en intervalos de 10 minutos

Datos horarios

Fecha y hora oficial Temperatura (ºC) Velocidad del viento (km/h) Dirección del viento Racha (km/h) Dirección de racha Precipitación (mm) Presión (hPa) Tendencia (hPa) Humedad (%)
2019-12-10 23:00:00 -- -- -- -- -- -- -- -- --
2019-12-10 22:00:00 6.7 2 Noroeste 5 Noroeste 0 -- -- 93
2019-12-10 21:00:00 6.9 0 Calma 6 Norte 0 -- -- 90
2019-12-10 20:00:00 7.2 0 Calma 5 Norte 0 -- -- 89
2019-12-10 19:00:00 7.7 2 Noroeste 6 Norte 0 -- -- 88
2019-12-10 18:00:00 8.9 3 Norte 8 Norte 0 -- -- 83
2019-12-10 17:00:00 11.4 3 Noroeste 6 Noroeste 0 -- -- 76
2019-12-10 16:00:00 12.8 2 Sudoeste 7 Sur 0 -- -- 69
2019-12-10 15:00:00 13.1 4 Sur 11 Sur 0 -- -- 66
2019-12-10 14:00:00 13.3 6 Sur 16 Sur 0 -- -- 67
2019-12-10 13:00:00 13.2 6 Sur 19 Sur 0 -- -- 63
2019-12-10 12:00:00 13.2 6 Sur 15 Sur 0 -- -- 58
2019-12-10 11:00:00 12.7 5 Norte 27 Norte 0 -- -- 51
2019-12-10 10:00:00 12.3 11 Noroeste 25 Norte 0 -- -- 52
2019-12-10 09:00:00 8.5 7 Norte 19 Norte 0 -- -- 69
2019-12-10 08:00:00 4.8 2 Noroeste 4 Norte 0 -- -- 86
2019-12-10 07:00:00 5.1 0 Calma 4 Noroeste 0 -- -- 84
2019-12-10 06:00:00 6.7 0 Calma 9 Sur 0 -- -- 78
2019-12-10 05:00:00 10.3 6 Noroeste 29 Noroeste 0 -- -- 63
2019-12-10 04:00:00 6.9 4 Norte 9 Noroeste 0 -- -- 81
2019-12-10 03:00:00 6.9 3 Noroeste 8 Noroeste 0 -- -- 80
2019-12-10 02:00:00 6.5 4 Noroeste 6 Noroeste 0 -- -- 82
2019-12-10 01:00:00 5.9 2 Norte 5 Noroeste 0 -- -- 83
2019-12-10 00:00:00 6.7 0 Calma 8 Norte 0 -- -- 79
2019-12-09 23:00:00 7.6 2 Noroeste 8 Norte 0 -- -- 75
2019-12-09 22:00:00 9.8 3 Norte 23 Noroeste 0 -- -- 67
2019-12-09 21:00:00 12.3 3 Sur 26 Noroeste 0 -- -- 57
2019-12-09 20:00:00 13.3 10 Noroeste 52 Noroeste 0 -- -- 53
2019-12-09 19:00:00 13.4 17 Noroeste 34 Noroeste 0 -- -- 55
2019-12-09 18:00:00 13.3 3 Oeste 19 Oeste 0 -- -- 59
2019-12-09 17:00:00 14.7 5 Sudeste 29 Norte 0 -- -- 55
2019-12-09 16:00:00 15.2 12 Noroeste 42 Noroeste 0 -- -- 54
2019-12-09 15:00:00 15.9 20 Noroeste 45 Noroeste 0 -- -- 52
2019-12-09 14:00:00 15.9 17 Noroeste 50 Noroeste 0 -- -- 51
2019-12-09 13:00:00 15.8 16 Noroeste 40 Noroeste 0 -- -- 53
2019-12-09 12:00:00 15.2 15 Noroeste 39 Noroeste 0 -- -- 52
2019-12-09 11:00:00 14.4 18 Noroeste 43 Noroeste 0 -- -- 53
2019-12-09 10:00:00 12.3 10 Norte 29 Noroeste 0 -- -- 60
2019-12-09 09:00:00 10.3 3 Sur 22 Noroeste 0 -- -- 65
2019-12-09 08:00:00 10.1 10 Norte 28 Noroeste 0 -- -- 63
2019-12-09 07:00:00 10.6 10 Norte 24 Noroeste 0 -- -- 71
2019-12-09 06:00:00 11.2 12 Norte 30 Norte 0 -- -- 76
2019-12-09 05:00:00 11.7 16 Norte 28 Norte 0 -- -- 76
2019-12-09 04:00:00 11.9 15 Norte 30 Noroeste 0 -- -- 75
2019-12-09 03:00:00 12 14 Noroeste 31 Noroeste 0 -- -- 74
2019-12-09 02:00:00 12.4 10 Noroeste 23 Noroeste 0 -- -- 71
2019-12-09 01:00:00 12.4 8 Noroeste 21 Oeste 0 -- -- 72
2019-12-09 00:00:00 11.8 3 Noroeste 28 Noroeste 0 -- -- 75
2019-12-08 23:00:00 11 7 Noroeste 25 Norte 0 -- -- 78
2019-12-08 22:00:00 11 6 Norte 20 Norte 0 -- -- 80
2019-12-08 21:00:00 11.8 4 Noroeste 21 Norte 0 -- -- 74
2019-12-08 20:00:00 11.7 4 Noroeste 9 Norte 0 -- -- 85
2019-12-08 19:00:00 11.8 2 Noroeste 9 Noroeste 0 -- -- 91
2019-12-08 18:00:00 11.8 5 Noroeste 10 Norte 0 -- -- 89
2019-12-08 17:00:00 13 4 Norte 14 Noroeste 0 -- -- 85
2019-12-08 16:00:00 13.5 6 Norte 15 Noroeste 0 -- -- 77
2019-12-08 15:00:00 14.2 6 Norte 14 Norte 0 -- -- 75
2019-12-08 14:00:00 14.3 5 Norte 13 Norte 0 -- -- 75
2019-12-08 13:00:00 15.1 6 Norte 15 Noroeste 0 -- -- 66
2019-12-08 12:00:00 14.2 5 Nordeste 18 Norte 0 -- -- 69
2019-12-08 11:00:00 12.7 7 Norte 17 Noroeste 0 -- -- 74
2019-12-08 10:00:00 10.6 0 Calma 6 Sur 0 -- -- 95
2019-12-08 09:00:00 7.5 0 Calma 5 Sudoeste 0 -- -- 100
2019-12-08 08:00:00 6.4 2 Sur 5 Sur 0 -- -- 98
2019-12-08 07:00:00 6.7 0 Calma 4 Noroeste 0 -- -- 98
2019-12-08 06:00:00 6.9 0 Calma 3 Noroeste 0 -- -- 99
2019-12-08 05:00:00 6.7 0 Calma 3 Noroeste 0 -- -- 98
2019-12-08 04:00:00 6.7 0 Calma 2 Noroeste 0 -- -- 97
2019-12-08 03:00:00 7 0 Calma 3 Noroeste 0 -- -- 97
2019-12-08 02:00:00 7 2 Noroeste 3 Noroeste 0 -- -- 96
2019-12-08 01:00:00 7.3 0 Calma 3 Noroeste 0 -- -- 94
2019-12-08 00:00:00 7.8 0 Calma 5 Norte 0 -- -- 91
2019-12-07 23:00:00 8.7 2 Noroeste 4 Noroeste 0 -- -- 88
2019-12-07 22:00:00 9.9 2 Oeste 7 Oeste 0 -- -- 83
2019-12-07 21:00:00 10.1 0 Calma 8 Noroeste 0 -- -- 82
2019-12-07 20:00:00 10.7 0 Calma 16 Nordeste 0 -- -- 80
2019-12-07 19:00:00 12.3 8 Nordeste 17 Nordeste 0 -- -- 73
2019-12-07 18:00:00 11.2 3 Noroeste 9 Norte 0 -- -- 89
2019-12-07 17:00:00 13.3 7 Noroeste 13 Noroeste 0 -- -- 81
2019-12-07 16:00:00 14.1 7 Noroeste 15 Oeste 0 -- -- 79
2019-12-07 15:00:00 15.1 6 Noroeste 18 Oeste 0 -- -- 72
2019-12-07 14:00:00 16.2 4 Sudoeste 10 Sudeste 0 -- -- 69
2019-12-07 13:00:00 15.4 6 Sur 13 Noroeste 0 -- -- 72
2019-12-07 12:00:00 15.8 5 Noroeste 16 Oeste 0 -- -- 63
2019-12-07 11:00:00 14.5 4 Sur 27 Norte 0 -- -- 69
2019-12-07 10:00:00 12.5 13 Norte 28 Noroeste 0 -- -- 76
2019-12-07 09:00:00 11.2 10 Norte 22 Norte 0 -- -- 81
2019-12-07 08:00:00 10.7 11 Norte 28 Norte 0 -- -- 83
2019-12-07 07:00:00 10.9 11 Norte 21 Norte 0 -- -- 83
2019-12-07 06:00:00 10.5 8 Norte 15 Norte 0 -- -- 85
2019-12-07 05:00:00 10.7 7 Norte 15 Norte 0 -- -- 84
2019-12-07 04:00:00 10.6 6 Norte 19 Norte 0 -- -- 84
2019-12-07 03:00:00 11.4 10 Norte 27 Norte 0 -- -- 81
2019-12-07 02:00:00 11.1 7 Norte 16 Norte 0 -- -- 82
2019-12-07 01:00:00 9.9 3 Noroeste 12 Noroeste 0 -- -- 89
2019-12-07 00:00:00 10.3 4 Noroeste 15 Noroeste 0 -- -- 88
2019-12-06 23:00:00 9 0 Calma 3 Noroeste 0 -- -- 93
2019-12-06 22:00:00 10.5 0 Calma 13 Nordeste 0 -- -- 89
2019-12-06 21:00:00 10.1 0 Calma 9 Noroeste 0 -- -- 90
2019-12-06 20:00:00 11.7 6 Noroeste 12 Noroeste 0 -- -- 86
2019-12-06 19:00:00 11.2 3 Noroeste 9 Noroeste 0 -- -- 90
2019-12-06 18:00:00 12.7 6 Norte 17 Noroeste 0 -- -- 83
2019-12-06 17:00:00 13.9 10 Norte 18 Norte 0 -- -- 77
2019-12-06 16:00:00 14 6 Norte 14 Norte 0 -- -- 76
2019-12-06 15:00:00 15.6 6 Norte 15 Norte 0 -- -- 70
2019-12-06 14:00:00 16 5 Norte 15 Norte 0 -- -- 67
2019-12-06 13:00:00 16 6 Norte 15 Noroeste 0 -- -- 65
2019-12-06 12:00:00 15.2 5 Norte 17 Norte 0 -- -- 69
2019-12-06 11:00:00 15.1 5 Noroeste 12 Norte 0 -- -- 68
2019-12-06 10:00:00 12.2 0 Calma 4 Sudoeste 0 -- -- 86
2019-12-06 09:00:00 11.1 0 Calma 2 Noroeste 0 -- -- 87
2019-12-06 08:00:00 11 0 Calma 2 Noroeste 0 -- -- 88
2019-12-06 07:00:00 11 0 Calma 3 Noroeste 0 -- -- 89
2019-12-06 06:00:00 10.8 0 Calma 5 Norte 0 -- -- 87
2019-12-06 05:00:00 11 0 Calma 5 Noroeste 0 -- -- 86
2019-12-06 04:00:00 11 0 Calma 6 Noroeste 0 -- -- 83
2019-12-06 03:00:00 13.2 2 Sudeste 11 Sudeste 0 -- -- 71
2019-12-06 02:00:00 12.8 2 Sudeste 15 Sur 0 -- -- 74
2019-12-06 01:00:00 13.9 6 Sur 25 Sudeste 0 -- -- 70
2019-12-06 00:00:00 14 8 Sudeste 30 Sudeste 0 -- -- 71
2019-12-05 23:00:00 14.1 15 Sudeste 31 Sudeste 0 -- -- 70
2019-12-05 22:00:00 13.9 10 Sudeste 33 Este 0 -- -- 72
2019-12-05 21:00:00 13.9 16 Sudeste 44 Sudeste 0.2 -- -- 73
2019-12-05 20:00:00 13.6 18 Sudeste 37 Sur 0 -- -- 75
2019-12-05 19:00:00 13 8 Sur 36 Sudeste 0 -- -- 77
2019-12-05 18:00:00 13.5 15 Sudeste 42 Este 0 -- -- 75
2019-12-05 17:00:00 13.2 16 Sur 41 Sudeste 0 -- -- 77
2019-12-05 16:00:00 13.5 12 Sudeste 39 Sur 0 -- -- 79
2019-12-05 15:00:00 13 13 Sudeste 41 Sudeste 0 -- -- 82
2019-12-05 14:00:00 12.5 17 Sudeste 40 Sudeste 0 -- -- 83
2019-12-05 13:00:00 12 12 Sudoeste 31 Sur 0.6 -- -- 87
2019-12-05 12:00:00 11.3 4 Sur 9 Sudoeste 0.8 -- -- 95
2019-12-05 11:00:00 11.3 3 Sudoeste 15 Sur 1 -- -- 95
2019-12-05 10:00:00 11.2 4 Sudoeste 12 Sudoeste 1.2 -- -- 94
2019-12-05 09:00:00 11.2 4 Sudoeste 22 Sur 0.6 -- -- 93
2019-12-05 08:00:00 12.1 13 Sur 45 Sudeste 0.2 -- -- 85
2019-12-05 07:00:00 12.6 13 Sur 36 Sur 0 -- -- 82
2019-12-05 06:00:00 12.6 9 Sur 32 Sudeste 0 -- -- 83
2019-12-05 05:00:00 12.6 15 Sur 40 Sudeste 0 -- -- 82
2019-12-05 04:00:00 12.9 15 Sudeste 45 Sudeste 0 -- -- 81
2019-12-05 03:00:00 12.6 18 Sur 40 Sudeste 0 -- -- 82
2019-12-05 02:00:00 12 15 Sur 40 Sur 0.6 -- -- 88
2019-12-05 01:00:00 11.1 4 Norte 12 Este 1.6 -- -- 94
2019-12-05 00:00:00 11.3 5 Oeste 41 Sur 4 -- -- 92
2019-12-04 23:00:00 12.1 23 Sur 41 Sudeste 1.8 -- -- 88
2019-12-04 22:00:00 12.8 19 Sur 45 Este 0 -- -- 82
2019-12-04 21:00:00 12.8 18 Sur 43 Este 0 -- -- 80
2019-12-04 20:00:00 12.7 23 Sur 55 Sudeste 0 -- -- 81
2019-12-04 19:00:00 13.1 27 Sur 55 Sudeste 0 -- -- 82
2019-12-04 18:00:00 11.5 15 Sudoeste 41 Sudeste 5.4 -- -- 89
2019-12-04 17:00:00 12.2 16 Sur 50 Sudeste 7 -- -- 88
2019-12-04 16:00:00 12.5 22 Sur 71 Sudeste 8.6 -- -- 87
2019-12-04 15:00:00 12.7 27 Sudeste 66 Sudeste 6.8 -- -- 87
2019-12-04 14:00:00 13 24 Sudeste 59 Sudeste 1.6 -- -- 85
2019-12-04 13:00:00 13.1 25 Sudeste 58 Este 0.8 -- -- 87
2019-12-04 12:00:00 13 22 Sudeste 56 Sudeste 1.4 -- -- 87
2019-12-04 11:00:00 13.3 24 Sudeste 58 Sur 1 -- -- 84
2019-12-04 10:00:00 12.9 27 Sur 68 Este 3 -- -- 84
2019-12-04 09:00:00 12.9 32 Sudeste 62 Sudeste 2.8 -- -- 85
2019-12-04 08:00:00 13.5 27 Sudeste 55 Sudeste 0 -- -- 80
2019-12-04 07:00:00 13.5 26 Sudeste 52 Sudeste 1 -- -- 80
2019-12-04 06:00:00 13.6 24 Sur 60 Sudeste 0 -- -- 77
2019-12-04 05:00:00 13.9 27 Sudeste 59 Sur 0 -- -- 74
2019-12-04 04:00:00 14.1 27 Sudeste 57 Sudeste 0 -- -- 73
2019-12-04 03:00:00 14.1 24 Sudeste 53 Sudeste 0 -- -- 72
2019-12-04 02:00:00 14.3 19 Sudeste 50 Sudeste 0 -- -- 70
2019-12-04 01:00:00 14.5 20 Sudeste 45 Sudeste 0 -- -- 68
2019-12-04 00:00:00 14.4 16 Sudeste 41 Este 0 -- -- 68
2019-12-03 23:00:00 14.2 15 Sudeste 40 Sudeste 0 -- -- 67
2019-12-03 22:00:00 14.1 16 Sudeste 44 Sudeste 0 -- -- 68
2019-12-03 21:00:00 14.1 14 Sudeste 40 Sudeste 0 -- -- 66
2019-12-03 20:00:00 13.9 13 Sudeste 41 Sudeste 0 -- -- 68
2019-12-03 19:00:00 13.7 14 Sudeste 41 Sudeste 0 -- -- 68
2019-12-03 18:00:00 13.4 9 Sudeste 28 Este 0 -- -- 67
2019-12-03 17:00:00 13.4 8 Sur 27 Sudeste 0 -- -- 68
2019-12-03 16:00:00 13.4 5 Sudeste 20 Sudeste 0 -- -- 64
2019-12-03 15:00:00 13.5 9 Sudeste 23 Sudeste 0 -- -- 60
2019-12-03 14:00:00 13.3 5 Sudeste 14 Sur 0 -- -- 58
2019-12-03 13:00:00 13 5 Sur 15 Norte 0 -- -- 64
2019-12-03 12:00:00 11.3 8 Norte 21 Norte 0 -- -- 69
2019-12-03 11:00:00 9.5 10 Norte 27 Norte 0 -- -- 73
2019-12-03 10:00:00 8.7 12 Norte 23 Noroeste 0 -- -- 75
2019-12-03 09:00:00 8.5 13 Norte 24 Norte 0 -- -- 77
2019-12-03 08:00:00 8.3 13 Norte 19 Norte 0 -- -- 79
2019-12-03 07:00:00 8.3 7 Nordeste 27 Nordeste 0 -- -- 80
2019-12-03 06:00:00 8.3 10 Norte 28 Nordeste 0 -- -- 79
2019-12-03 05:00:00 8.2 11 Norte 26 Norte 0 -- -- 80
2019-12-03 04:00:00 9.1 12 Nordeste 22 Nordeste 0 -- -- 79
2019-12-03 03:00:00 9.6 8 Norte 15 Norte 0 -- -- 84
2019-12-03 02:00:00 7.2 0 Calma 2 Noroeste 0 -- -- 98
2019-12-03 01:00:00 7.6 0 Calma 2 Noroeste 0 -- -- 98
2019-12-03 00:00:00 7.8 0 Calma 2 Noroeste 0 -- -- 98
2019-12-02 23:00:00 7.9 0 Calma 2 Noroeste 0 -- -- 98
2019-12-02 22:00:00 8.2 0 Calma 3 Noroeste 0 -- -- 98
2019-12-02 21:00:00 8.2 0 Calma 3 Noroeste 0 -- -- 96
2019-12-02 20:00:00 8.6 0 Calma 4 Noroeste 0 -- -- 95
2019-12-02 19:00:00 9.1 0 Calma 4 Norte 0 -- -- 93
2019-12-02 18:00:00 10.1 0 Calma 7 Norte 0 -- -- 90
2019-12-02 17:00:00 11.6 3 Norte 12 Noroeste 0 -- -- 84
2019-12-02 16:00:00 13 3 Noroeste 13 Norte 0 -- -- 75
2019-12-02 15:00:00 14.1 4 Sudoeste 10 Norte 0 -- -- 68
2019-12-02 14:00:00 13.8 4 Norte 14 Sudoeste 0 -- -- 69
2019-12-02 13:00:00 14.3 3 Oeste 15 Noroeste 0 -- -- 65
2019-12-02 12:00:00 13.1 3 Oeste 9 Sur 0 -- -- 72
2019-12-02 11:00:00 12.8 3 Sur 7 Sur 0 -- -- 72
2019-12-02 10:00:00 10.6 0 Calma 5 Sur 0 -- -- 91
2019-12-02 09:00:00 8.2 0 Calma 3 Norte 0 -- -- 95
2019-12-02 08:00:00 7.4 2 Noroeste 5 Noroeste 0 -- -- 95
2019-12-02 07:00:00 7.7 0 Calma 5 Noroeste 0 -- -- 93
2019-12-02 06:00:00 8.5 2 Noroeste 4 Noroeste 0 -- -- 95
2019-12-02 05:00:00 8.9 0 Calma 5 Noroeste 0 -- -- 94
2019-12-02 04:00:00 10 0 Calma 5 Norte 0 -- -- 91
2019-12-02 03:00:00 10.7 0 Calma 4 Sur 0 -- -- 91
2019-12-02 02:00:00 10.5 0 Calma 4 Sur 0 -- -- 91
2019-12-02 01:00:00 11.7 3 Sudoeste 12 Este 0 -- -- 88
2019-12-02 00:00:00 13.2 5 Este 15 Sudeste 0 -- -- 86
2019-12-01 23:00:00 13.2 4 Sudeste 15 Este 0 -- -- 84
2019-12-01 22:00:00 13.3 6 Sudeste 16 Sudeste 0 -- -- 85
2019-12-01 21:00:00 12.7 6 Sudeste 17 Este 0 -- -- 90
2019-12-01 20:00:00 9.9 0 Calma 5 Noroeste 0 -- -- 89
2019-12-01 19:00:00 10.4 0 Calma 4 Noroeste 0 -- -- 85
2019-12-01 18:00:00 12 3 Norte 5 Noroeste 0 -- -- 78
2019-12-01 17:00:00 14.6 0 Calma 6 Oeste 0 -- -- 70
2019-12-01 16:00:00 15 0 Calma 10 Sudeste 0 -- -- 68
2019-12-01 15:00:00 16.8 3 Oeste 15 Norte 0 -- -- 57
2019-12-01 14:00:00 17.5 3 Noroeste 12 Norte 0 -- -- 50
2019-12-01 13:00:00 16.4 6 Noroeste 16 Noroeste 0 -- -- 53
2019-12-01 12:00:00 15.5 5 Noroeste 13 Norte 0 -- -- 59
2019-12-01 11:00:00 14.7 6 Norte 14 Norte 0 -- -- 62
2019-12-01 10:00:00 14.3 8 Norte 15 Norte 0 -- -- 62
2019-12-01 09:00:00 11.8 4 Noroeste 8 Norte 0 -- -- 76
2019-12-01 08:00:00 11.6 2 Noroeste 5 Noroeste 0 -- -- 84
2019-12-01 07:00:00 11.7 3 Noroeste 6 Norte 0 -- -- 86
2019-12-01 06:00:00 11.2 2 Noroeste 11 Norte 0 -- -- 88
2019-12-01 05:00:00 10.2 0 Calma 8 Sudoeste 0 -- -- 93
2019-12-01 04:00:00 11.1 2 Noroeste 5 Noroeste 0 -- -- 95
2019-12-01 03:00:00 12.9 2 Noroeste 12 Noroeste 0 -- -- 91
2019-12-01 02:00:00 13.2 4 Norte 12 Noroeste 0 -- -- 95
2019-12-01 01:00:00 12.6 0 Calma 4 Norte 0 -- -- 98
2019-12-01 00:00:00 11.9 0 Calma 3 Norte 0 -- -- 98
2019-11-30 23:00:00 11.2 0 Calma 5 Norte 0 -- -- 96
2019-11-30 22:00:00 12 0 Calma 5 Norte 0 -- -- 94
2019-11-30 21:00:00 13.6 3 Norte 9 Noroeste 0 -- -- 90
2019-11-30 20:00:00 14.5 5 Norte 10 Norte 0 -- -- 90
2019-11-30 19:00:00 14.7 5 Norte 11 Norte 0 -- -- 91
2019-11-30 18:00:00 13.7 0 Calma 5 Noroeste 0 -- -- 94
2019-11-30 17:00:00 13.3 0 Calma 10 Oeste 0 -- -- 90
2019-11-30 16:00:00 14.9 4 Oeste 10 Oeste 0 -- -- 85
2019-11-30 15:00:00 16.7 3 Oeste 9 Oeste 0 -- -- 79
2019-11-30 14:00:00 16.5 6 Sudoeste 14 Sudoeste 0 -- -- 78
2019-11-30 13:00:00 17.9 4 Sudoeste 12 Noroeste 0 -- -- 73
2019-11-30 12:00:00 17 6 Noroeste 14 Norte 0 -- -- 74
2019-11-30 11:00:00 16 5 Norte 10 Noroeste 0 -- -- 80
2019-11-30 10:00:00 13.4 0 Calma 4 Sur 0 -- -- 91
2019-11-30 09:00:00 10.2 0 Calma 3 Noroeste 0 -- -- 100
2019-11-30 08:00:00 8.8 0 Calma 3 Noroeste 0 -- -- 99
2019-11-30 07:00:00 9.1 0 Calma 5 Norte 0 -- -- 98
2019-11-30 06:00:00 9.2 0 Calma 4 Norte 0 -- -- 98
2019-11-30 05:00:00 9.1 0 Calma 3 Noroeste 0 -- -- 98
2019-11-30 04:00:00 9.2 0 Calma 3 Noroeste 0 -- -- 97
2019-11-30 03:00:00 9.4 0 Calma 4 Norte 0 -- -- 97
2019-11-30 02:00:00 9.5 0 Calma 4 Noroeste 0 -- -- 97
2019-11-30 01:00:00 9.9 0 Calma 4 Noroeste 0 -- -- 95
2019-11-30 00:00:00 11 0 Calma 4 Noroeste 0 -- -- 95
2019-11-29 23:00:00 12 2 Noroeste 7 Noroeste 0 -- -- 93
2019-11-29 22:00:00 13.8 3 Este 13 Este 0 -- -- 87
2019-11-29 21:00:00 14.2 4 Nordeste 18 Sudeste 0 -- -- 86
2019-11-29 20:00:00 14.1 9 Sudeste 20 Sudeste 0 -- -- 91
2019-11-29 19:00:00 12.2 2 Noroeste 5 Norte 0 -- -- 89
2019-11-29 18:00:00 13.1 3 Noroeste 10 Sur 0 -- -- 87
2019-11-29 17:00:00 15 3 Sur 21 Sur 0 -- -- 83
2019-11-29 16:00:00 15.5 10 Sur 21 Sur 0 -- -- 86
2019-11-29 15:00:00 16.2 9 Sur 25 Sur 0 -- -- 81
2019-11-29 14:00:00 17.6 7 Sur 15 Sur 0 -- -- 67
2019-11-29 13:00:00 18.3 4 Sur 14 Sudeste 0 -- -- 65
2019-11-29 12:00:00 16.9 0 Calma 5 Sur 0 -- -- 72
2019-11-29 11:00:00 17.2 3 Sur 7 Sudeste 0 -- -- 67
2019-11-29 10:00:00 14.4 2 Sudoeste 5 Norte 0 -- -- 80
2019-11-29 09:00:00 12.7 0 Calma 4 Sur 0 -- -- 83
2019-11-29 08:00:00 12.6 4 Norte 6 Norte 0 -- -- 79
2019-11-29 07:00:00 13.4 4 Norte 13 Noroeste 0 -- -- 74
2019-11-29 06:00:00 15.4 7 Noroeste 27 Noroeste 0 -- -- 65
2019-11-29 05:00:00 13.8 3 Norte 12 Norte 0 -- -- 69
2019-11-29 04:00:00 12.3 3 Noroeste 10 Noroeste 0 -- -- 74
2019-11-29 03:00:00 12.5 3 Noroeste 5 Noroeste 0 -- -- 73
2019-11-29 02:00:00 13.5 2 Norte 10 Nordeste 0 -- -- 68
2019-11-29 01:00:00 14.4 5 Norte 19 Noroeste 0 -- -- 62
2019-11-29 00:00:00 13.6 6 Norte 13 Norte 0 -- -- 67
2019-11-28 23:00:00 14.1 0 Calma 11 Noroeste 0 -- -- 68
2019-11-28 22:00:00 14.3 3 Norte 9 Noroeste 0 -- -- 71
2019-11-28 21:00:00 15.5 6 Noroeste 14 Noroeste 0 -- -- 67
2019-11-28 20:00:00 15.2 5 Norte 13 Norte 0 -- -- 68
2019-11-28 19:00:00 15.8 6 Norte 16 Norte 0 -- -- 60
2019-11-28 18:00:00 16.4 7 Norte 21 Norte 0 -- -- 59
2019-11-28 17:00:00 16.9 10 Norte 24 Noroeste 0 -- -- 67
2019-11-28 16:00:00 18 4 Noroeste 21 Noroeste 0 -- -- 56
2019-11-28 15:00:00 18.1 9 Nordeste 24 Norte 0 -- -- 65
2019-11-28 14:00:00 18.5 13 Norte 33 Nordeste 0 -- -- 54
2019-11-28 13:00:00 18.3 18 Nordeste 37 Norte 0 -- -- 59
2019-11-28 12:00:00 18 11 Nordeste 27 Nordeste 0 -- -- 55
2019-11-28 11:00:00 17.4 14 Nordeste 26 Norte 0 -- -- 56
2019-11-28 10:00:00 16.4 12 Norte 28 Nordeste 0 -- -- 58
2019-11-28 09:00:00 15.1 13 Nordeste 22 Norte 0 -- -- 64
2019-11-28 08:00:00 10.5 2 Norte 10 Norte 0 -- -- 80
2019-11-28 07:00:00 10.7 2 Noroeste 17 Norte 0 -- -- 78
2019-11-28 06:00:00 10.6 0 Calma 10 Noroeste 0 -- -- 76
2019-11-28 05:00:00 13.3 6 Norte 18 Norte 0 -- -- 64
2019-11-28 04:00:00 14.6 8 Norte 22 Noroeste 0 -- -- 59
2019-11-28 03:00:00 14.5 6 Norte 27 Norte 0 -- -- 60
2019-11-28 02:00:00 11.9 3 Noroeste 12 Norte 0 -- -- 72
2019-11-28 01:00:00 12.9 4 Norte 14 Oeste 0 -- -- 67
2019-11-28 00:00:00 12.9 5 Norte 13 Noroeste 0 -- -- 66
2019-11-27 23:00:00 13.3 3 Norte 10 Noroeste 0 -- -- 66
2019-11-27 22:00:00 12.5 3 Noroeste 6 Norte 0 -- -- 69
2019-11-27 21:00:00 11.5 3 Norte 8 Norte 0 -- -- 68
2019-11-27 20:00:00 12 4 Noroeste 8 Noroeste 0 -- -- 67
2019-11-27 19:00:00 15 3 Sudoeste 17 Noroeste 0 -- -- 55
2019-11-27 18:00:00 16.3 9 Noroeste 23 Norte 0 -- -- 48
2019-11-27 17:00:00 17.2 4 Norte 33 Norte 0 -- -- 50
2019-11-27 16:00:00 18.2 12 Norte 34 Norte 0 -- -- 45
2019-11-27 15:00:00 18.1 9 Norte 29 Noroeste 0 -- -- 47
2019-11-27 14:00:00 18.1 12 Norte 30 Norte 0 -- -- 47
2019-11-27 06:00:00 11.7 2 Oeste 12 Norte 0 -- -- 83
2019-11-27 05:00:00 12.7 3 Norte 16 Norte 0 -- -- 79
2019-11-27 04:00:00 13.7 6 Noroeste 17 Noroeste 0 -- -- 76
2019-11-27 03:00:00 13.9 8 Noroeste 18 Norte 0 -- -- 86
2019-11-27 02:00:00 13.3 5 Noroeste 9 Noroeste 0 -- -- 88
2019-11-27 01:00:00 12.9 0 Calma 10 Oeste 0 -- -- 86
2019-11-27 00:00:00 12.7 3 Oeste 10 Oeste 0 -- -- 83
2019-11-26 23:00:00 11.8 0 Calma 4 Noroeste 0 -- -- 86
2019-11-26 22:00:00 13.3 4 Noroeste 11 Noroeste 0 -- -- 84
2019-11-26 21:00:00 14 6 Noroeste 13 Norte 0 -- -- 86
2019-11-26 20:00:00 14.8 6 Norte 19 Norte 0 -- -- 81
2019-11-26 19:00:00 15.2 8 Norte 18 Norte 0 -- -- 70
2019-11-26 18:00:00 15.6 7 Norte 15 Norte 0 -- -- 68
2019-11-26 17:00:00 16.6 10 Norte 22 Norte 0 -- -- 66
2019-11-26 16:00:00 16.9 6 Norte 18 Norte 0 -- -- 69
2019-11-26 15:00:00 17.6 8 Norte 18 Norte 0 -- -- 67
2019-11-26 14:00:00 17.3 9 Norte 20 Norte 0 -- -- 73
2019-11-26 13:00:00 18.4 8 Nordeste 21 Norte 0 -- -- 64
2019-11-26 12:00:00 17.9 4 Norte 24 Norte 0 -- -- 65
2019-11-26 11:00:00 16.8 7 Norte 18 Noroeste 0 -- -- 62
2019-11-26 10:00:00 12.4 3 Noroeste 14 Noroeste 0 -- -- 86
2019-11-26 09:00:00 10 2 Noroeste 5 Sudeste 0 -- -- 97
2019-11-26 08:00:00 8.9 0 Calma 4 Noroeste 0 -- -- 97
2019-11-26 07:00:00 9.1 0 Calma 4 Norte 0 -- -- 98
2019-11-26 06:00:00 9.5 0 Calma 4 Noroeste 0 -- -- 97
2019-11-26 05:00:00 9.4 0 Calma 3 Norte 0 -- -- 97
2019-11-26 04:00:00 9.7 0 Calma 4 Noroeste 0 -- -- 97
2019-11-26 03:00:00 9.2 0 Calma 3 Noroeste 0 -- -- 96
2019-11-26 02:00:00 9.4 2 Noroeste 5 Noroeste 0 -- -- 96
2019-11-26 01:00:00 9.4 0 Calma 3 Norte 0 -- -- 94
2019-11-26 00:00:00 9.4 0 Calma 3 Noroeste 0 -- -- 93
2019-11-25 23:00:00 9.5 0 Calma 4 Noroeste 0 -- -- 93
2019-11-25 22:00:00 9.6 0 Calma 4 Noroeste 0 -- -- 92
2019-11-25 21:00:00 9.9 0 Calma 5 Noroeste 0 -- -- 90
2019-11-25 20:00:00 10.1 0 Calma 4 Noroeste 0 -- -- 91
2019-11-25 19:00:00 10.3 0 Calma 4 Norte 0 -- -- 89
2019-11-25 18:00:00 10.8 0 Calma 6 Noroeste 0 -- -- 89
2019-11-25 17:00:00 11.9 3 Norte 5 Noroeste 0 -- -- 87
2019-11-25 16:00:00 12.5 2 Noroeste 5 Sur 0 -- -- 82
2019-11-25 15:00:00 15.5 6 Sur 13 Sur 0 -- -- 67
2019-11-25 14:00:00 16 4 Sur 14 Sur 0 -- -- 61
2019-11-25 13:00:00 15.4 6 Sur 13 Sur 0 -- -- 62
2019-11-25 12:00:00 15 7 Sur 15 Sur 0 -- -- 64
2019-11-25 11:00:00 15.1 3 Sur 13 Sur 0 -- -- 64
2019-11-25 10:00:00 12.7 0 Calma 6 Sur 0 -- -- 74
2019-11-25 09:00:00 9 2 Sudoeste 5 Norte 0 -- -- 84
2019-11-25 08:00:00 6.7 0 Calma 6 Norte 0 -- -- 89
2019-11-25 07:00:00 7.3 0 Calma 6 Norte 0 -- -- 85
2019-11-25 06:00:00 8.5 3 Norte 6 Norte 0 -- -- 80
2019-11-25 05:00:00 9.4 5 Noroeste 13 Noroeste 0 -- -- 76
2019-11-25 04:00:00 9.1 4 Noroeste 8 Noroeste 0 -- -- 77
2019-11-25 03:00:00 9.6 0 Calma 11 Noroeste 0 -- -- 77
2019-11-25 02:00:00 9.6 0 Calma 11 Norte 0 -- -- 75
2019-11-25 01:00:00 10.1 7 Norte 16 Norte 0 -- -- 72
2019-11-25 00:00:00 8.6 5 Norte 9 Norte 0 -- -- 79
2019-11-24 23:00:00 9.1 0 Calma 14 Norte 0 -- -- 76
2019-11-24 22:00:00 9.2 5 Norte 12 Norte 0 -- -- 77
2019-11-24 21:00:00 9.7 3 Noroeste 10 Noroeste 0 -- -- 76
2019-11-24 20:00:00 8.7 0 Calma 9 Noroeste 0 -- -- 80
2019-11-24 19:00:00 9.7 3 Oeste 10 Noroeste 0 -- -- 78
2019-11-24 18:00:00 9.6 3 Noroeste 7 Norte 0 -- -- 79
2019-11-24 17:00:00 10.5 3 Noroeste 5 Noroeste 0 -- -- 79
2019-11-24 16:00:00 11.8 0 Calma 9 Sur 0 -- -- 74
2019-11-24 15:00:00 15.3 5 Sur 15 Sur 0 -- -- 60
2019-11-24 14:00:00 16.1 10 Sur 18 Sur 0 -- -- 56
2019-11-24 13:00:00 16.3 6 Noroeste 23 Noroeste 0 -- -- 48
2019-11-24 12:00:00 15.9 5 Sur 22 Noroeste 0 -- -- 51
2019-11-24 11:00:00 14.4 6 Oeste 18 Sur 0 -- -- 52
2019-11-24 10:00:00 13.1 8 Sur 18 Oeste 0 -- -- 56
2019-11-24 09:00:00 11 8 Oeste 25 Oeste 0 -- -- 63
2019-11-24 08:00:00 9.2 4 Noroeste 15 Noroeste 0 -- -- 69
2019-11-24 07:00:00 9.4 0 Calma 22 Noroeste 0 -- -- 69
2019-11-24 06:00:00 9.9 10 Noroeste 21 Noroeste 0 -- -- 66
2019-11-24 05:00:00 7.4 3 Norte 7 Sur 0 -- -- 76
2019-11-24 04:00:00 9.8 3 Sudoeste 21 Noroeste 0 -- -- 66
2019-11-24 03:00:00 11.1 9 Noroeste 40 Noroeste 0 -- -- 59
2019-11-24 02:00:00 11.5 14 Noroeste 35 Noroeste 0 -- -- 59
2019-11-24 01:00:00 12.1 15 Noroeste 45 Noroeste 0 -- -- 56
2019-11-24 00:00:00 12.1 21 Noroeste 54 Noroeste 0 -- -- 58
2019-11-23 23:00:00 12.5 15 Noroeste 45 Noroeste 0 -- -- 55
2019-11-23 22:00:00 12.4 21 Noroeste 41 Noroeste 0 -- -- 57
2019-11-23 21:00:00 12.5 12 Noroeste 33 Noroeste 0 -- -- 58
2019-11-23 20:00:00 12.8 11 Norte 29 Noroeste 0 -- -- 60
2019-11-23 19:00:00 12.7 10 Noroeste 27 Noroeste 0 -- -- 60
2019-11-23 18:00:00 12.7 7 Noroeste 24 Sur 0 -- -- 61
2019-11-23 17:00:00 13.2 12 Noroeste 46 Noroeste 0 -- -- 59
2019-11-23 16:00:00 13.5 22 Noroeste 39 Noroeste 0 -- -- 58
2019-11-23 15:00:00 13.9 22 Noroeste 48 Norte 0 -- -- 60
2019-11-23 14:00:00 14 15 Noroeste 42 Noroeste 0 -- -- 60
2019-11-23 13:00:00 14.9 13 Noroeste 42 Noroeste 0 -- -- 58
2019-11-23 12:00:00 15.6 12 Norte 35 Noroeste 0 -- -- 57
2019-11-23 11:00:00 14.8 11 Noroeste 25 Noroeste 0 -- -- 59
2019-11-23 10:00:00 13.9 10 Noroeste 23 Norte 0 -- -- 65
2019-11-23 09:00:00 11.8 9 Norte 18 Noroeste 0 -- -- 75
2019-11-23 08:00:00 10.5 4 Norte 12 Noroeste 0 -- -- 89
2019-11-23 07:00:00 9.7 3 Noroeste 9 Noroeste 0 -- -- 97
2019-11-23 06:00:00 10.4 3 Noroeste 12 Noroeste 0 -- -- 95
2019-11-23 05:00:00 10.8 4 Norte 10 Noroeste 0 -- -- 95
2019-11-23 04:00:00 11.6 3 Noroeste 8 Noroeste 0 -- -- 94
2019-11-23 03:00:00 14.2 3 Noroeste 29 Norte 0.2 -- -- 91
2019-11-23 02:00:00 15.3 5 Nordeste 16 Norte 0.2 -- -- 94
2019-11-23 01:00:00 15.5 5 Nordeste 20 Sur 0 -- -- 93
2019-11-23 00:00:00 15.7 8 Sudeste 27 Oeste 0 -- -- 93
2019-11-22 23:00:00 15.3 12 Norte 32 Oeste 0.2 -- -- 94
2019-11-22 22:00:00 15.3 8 Nordeste 32 Este 0 -- -- 94
2019-11-22 21:00:00 15.2 7 Oeste 26 Noroeste 2.8 -- -- 96
2019-11-22 20:00:00 15.1 4 Este 27 Sudeste 3.4 -- -- 95
2019-11-22 19:00:00 14.9 5 Noroeste 16 Este 3.2 -- -- 96
2019-11-22 18:00:00 14.2 0 Calma 8 Este 0.4 -- -- 92
2019-11-22 17:00:00 15 2 Norte 18 Norte 0 -- -- 83
2019-11-22 16:00:00 15.3 5 Este 22 Sudeste 0 -- -- 77
2019-11-22 15:00:00 15.5 5 Este 25 Oeste 0 -- -- 77
2019-11-22 14:00:00 16.1 8 Sudoeste 27 Oeste 0 -- -- 72
2019-11-22 13:00:00 15.6 9 Sudeste 18 Sudeste 0 -- -- 80
2019-11-22 12:00:00 15.6 6 Sur 12 Sur 0 -- -- 82
2019-11-22 11:00:00 15 5 Sur 10 Sur 0 -- -- 81
2019-11-22 10:00:00 13.4 0 Calma 6 Sur 0 -- -- 91
2019-11-22 09:00:00 11.8 0 Calma 4 Noroeste 0.2 -- -- 97
2019-11-22 08:00:00 11.6 3 Noroeste 17 Noroeste 0 -- -- 95
2019-11-22 07:00:00 11.7 3 Noroeste 8 Oeste 0.2 -- -- 96
2019-11-22 06:00:00 10.5 0 Calma 3 Noroeste 0 -- -- 96
2019-11-22 05:00:00 9.8 0 Calma 3 Noroeste 0 -- -- 97
2019-11-22 04:00:00 9 0 Calma 3 Noroeste 0 -- -- 95
2019-11-22 03:00:00 9.7 2 Noroeste 3 Norte 0 -- -- 93
2019-11-22 02:00:00 10.3 0 Calma 3 Noroeste 0 -- -- 91
2019-11-22 01:00:00 10.2 0 Calma 3 Norte 0 -- -- 90
2019-11-22 00:00:00 9.9 0 Calma 2 Norte 0 -- -- 90
2019-11-21 23:00:00 9.1 0 Calma 2 Sur 0 -- -- 92
2019-11-21 22:00:00 9.5 0 Calma 6 Norte 0 -- -- 88
2019-11-21 21:00:00 10.8 3 Norte 10 Noroeste 0 -- -- 82
2019-11-21 20:00:00 11.9 5 Noroeste 14 Noroeste 0 -- -- 78
2019-11-21 19:00:00 12.4 6 Norte 18 Norte 0 -- -- 74
2019-11-21 18:00:00 12.9 6 Norte 21 Norte 0 -- -- 68
2019-11-21 17:00:00 14 15 Norte 26 Norte 0 -- -- 66
2019-11-21 16:00:00 14.5 10 Norte 19 Nordeste 0 -- -- 62
2019-11-21 15:00:00 15.1 9 Norte 21 Norte 0 -- -- 61
2019-11-21 14:00:00 15.4 10 Norte 22 Norte 0 -- -- 61
2019-11-21 13:00:00 14.8 7 Norte 16 Norte 0 -- -- 60
2019-11-21 12:00:00 14 5 Norte 16 Norte 0 -- -- 64
2019-11-21 11:00:00 13.3 6 Noroeste 14 Noroeste 0 -- -- 63
2019-11-21 10:00:00 12.2 2 Norte 4 Norte 0 -- -- 73
2019-11-21 09:00:00 8.8 0 Calma 3 Noroeste 0 -- -- 91
2019-11-21 08:00:00 -- -- -- -- -- -- -- -- --
2019-11-21 07:00:00 -- -- -- -- -- -- -- -- --
2019-11-21 06:00:00 -- -- -- -- -- -- -- -- --
2019-11-21 05:00:00 -- -- -- -- -- -- -- -- --
2019-11-21 04:00:00 -- -- -- -- -- -- -- -- --
2019-11-21 03:00:00 -- -- -- -- -- -- -- -- --
2019-11-21 02:00:00 -- -- -- -- -- -- -- -- --
2019-11-21 01:00:00 -- -- -- -- -- -- -- -- --
2019-11-21 00:00:00 -- -- -- -- -- -- -- -- --
2019-11-20 23:00:00 -- -- -- -- -- -- -- -- --
2019-11-20 22:00:00 -- -- -- -- -- -- -- -- --
2019-11-20 21:00:00 -- -- -- -- -- -- -- -- --
2019-11-20 20:00:00 -- -- -- -- -- -- -- -- --
2019-11-20 19:00:00 8 0 Calma 4 Noroeste 0 -- -- 86
2019-11-20 18:00:00 9.5 2 Noroeste 5 Noroeste 0 -- -- 83
2019-11-20 17:00:00 12.1 0 Calma 6 Sudeste 0 -- -- 79
2019-11-20 16:00:00 13.1 3 Sur 10 Sudeste 0 -- -- 71
2019-11-20 15:00:00 13.7 4 Sudeste 12 Sudeste 0 -- -- 70
2019-11-20 14:00:00 14.4 3 Sudeste 11 Sur 0 -- -- 65
2019-11-20 13:00:00 14.4 6 Sudoeste 13 Sudoeste 0 -- -- 63
2019-11-20 12:00:00 14.1 6 Sudoeste 12 Sur 0 -- -- 65
2019-11-20 11:00:00 13.3 3 Sudeste 11 Sudeste 0 -- -- 64
2019-11-20 10:00:00 9.9 4 Sur 5 Sur 0 -- -- 78
2019-11-20 09:00:00 6.1 0 Calma 2 Norte 0 -- -- 89
2019-11-20 08:00:00 4.7 0 Calma 2 Norte 0 -- -- 90
2019-11-20 07:00:00 4.6 0 Calma 3 Noroeste 0 -- -- 89
2019-11-20 06:00:00 4.3 0 Calma 4 Noroeste 0 -- -- 90
2019-11-20 05:00:00 4.2 0 Calma 2 Noroeste 0 -- -- 89
2019-11-20 04:00:00 4.2 0 Calma 4 Noroeste 0 -- -- 86
2019-11-20 03:00:00 4 2 Noroeste 4 Noroeste 0 -- -- 87
2019-11-20 02:00:00 3.9 0 Calma 2 Norte 0 -- -- 87
2019-11-20 01:00:00 4 0 Calma 3 Noroeste 0 -- -- 87
2019-11-20 00:00:00 4.5 0 Calma 3 Noroeste 0 -- -- 87
2019-11-19 23:00:00 4.8 0 Calma 3 Noroeste -- -- -- 87
2019-11-19 22:00:00 5.1 0 Calma 3 Norte 0 -- -- 85
2019-11-19 21:00:00 5.2 0 Calma 3 Noroeste 0 -- -- 85
2019-11-19 20:00:00 5.3 0 Calma 4 Noroeste 0 -- -- 85
2019-11-19 19:00:00 5.6 0 Calma 2 Norte 0 -- -- 83
2019-11-19 18:00:00 6.5 3 Noroeste 4 Noroeste 0 -- -- 80
2019-11-19 17:00:00 7.5 4 Noroeste 5 Noroeste 0 -- -- 76
2019-11-19 16:00:00 9.4 0 Calma 9 Sur 0 -- -- 70
2019-11-19 15:00:00 11.9 6 Sur 14 Sur 0 -- -- 60
2019-11-19 14:00:00 12.5 8 Sur 15 Sudeste 0 -- -- 58
2019-11-19 13:00:00 12.4 6 Sur 15 Sur 0 -- -- 59
2019-11-19 12:00:00 12.3 9 Sur 17 Sudeste 0 -- -- 60
2019-11-19 11:00:00 12 8 Sur 15 Sur 0 -- -- 59
2019-11-19 10:00:00 10.8 3 Noroeste 11 Noroeste 0 -- -- 48
2019-11-19 09:00:00 7.7 3 Norte 9 Noroeste 0 -- -- 63
2019-11-19 08:00:00 6.7 2 Norte 28 Nordeste 0 -- -- 61
2019-11-19 07:00:00 6.9 11 Norte 32 Norte 0 -- -- 60
2019-11-19 06:00:00 6.8 13 Norte 26 Norte 0 -- -- 61
2019-11-19 05:00:00 7.4 10 Norte 25 Norte 0 -- -- 58
2019-11-19 04:00:00 7.4 14 Norte 27 Norte 0 -- -- 60
2019-11-19 03:00:00 7.7 11 Norte 21 Norte 0 -- -- 60
2019-11-19 02:00:00 7.9 10 Norte 25 Norte 0 -- -- 61
2019-11-19 01:00:00 8.2 6 Norte 24 Norte 0 -- -- 62
2019-11-19 00:00:00 9.1 13 Nordeste 22 Norte 0 -- -- 61
2019-11-18 23:00:00 9.3 8 Norte 17 Norte 0 -- -- 63
2019-11-18 22:00:00 7.2 2 Noroeste 6 Norte 0 -- -- 81
2019-11-18 21:00:00 7.8 0 Calma 6 Noroeste 0 -- -- 78
2019-11-18 20:00:00 8.8 3 Noroeste 15 Norte 0 -- -- 74
2019-11-18 19:00:00 9.1 6 Norte 12 Norte 0 -- -- 74
2019-11-18 18:00:00 10.2 4 Noroeste 21 Norte 0 -- -- 71
2019-11-18 17:00:00 12.7 9 Norte 24 Nordeste 0 -- -- 62
2019-11-18 16:00:00 12.7 10 Norte 24 Noroeste 0 -- -- 66
2019-11-18 15:00:00 13.3 7 Norte 19 Noroeste 0 -- -- 65
2019-11-18 14:00:00 14.3 6 Sudeste 17 Sudeste 0 -- -- 59
2019-11-18 13:00:00 13.5 10 Sur 22 Sur 0 -- -- 63
2019-11-18 12:00:00 13.5 6 Sur 15 Sudeste 0 -- -- 60
2019-11-18 11:00:00 12.1 5 Sur 14 Sudeste 0 -- -- 65
2019-11-18 10:00:00 11.3 2 Sur 18 Noroeste 0 -- -- 69
2019-11-18 09:00:00 9.9 12 Noroeste 21 Noroeste 0 -- -- 70
2019-11-18 08:00:00 8.9 11 Norte 24 Noroeste 0 -- -- 75
2019-11-18 07:00:00 9 10 Noroeste 21 Noroeste 0 -- -- 76
2019-11-18 06:00:00 8.4 3 Noroeste 13 Noroeste 0 -- -- 78
2019-11-18 05:00:00 9.3 4 Norte 21 Noroeste 0 -- -- 75
2019-11-18 04:00:00 9.7 5 Noroeste 25 Noroeste 0 -- -- 74
2019-11-18 03:00:00 10.1 6 Noroeste 18 Noroeste 0 -- -- 73
2019-11-18 02:00:00 10.6 6 Noroeste 17 Norte 0 -- -- 72
2019-11-18 01:00:00 9.7 6 Noroeste 13 Norte 0 -- -- 80
2019-11-18 00:00:00 10.6 5 Norte 14 Norte 0 -- -- 80
2019-11-17 23:00:00 11.3 9 Norte 15 Norte 0 -- -- 68
2019-11-17 22:00:00 12 9 Norte 24 Noroeste 0 -- -- 65
2019-11-17 21:00:00 12.4 5 Norte 17 Noroeste 0 -- -- 63
2019-11-17 20:00:00 12.3 6 Noroeste 14 Norte 0 -- -- 61
2019-11-17 19:00:00 10.7 0 Calma 4 Noroeste 0 -- -- 70
2019-11-17 18:00:00 10.1 3 Norte 5 Norte 0 -- -- 75
2019-11-17 17:00:00 11 3 Norte 12 Sur 0 -- -- 70
2019-11-17 16:00:00 12.4 4 Nordeste 17 Norte 0 -- -- 64
2019-11-17 15:00:00 12.9 9 Noroeste 26 Norte 0 -- -- 55
2019-11-17 14:00:00 13.3 8 Norte 30 Norte 0 -- -- 54
2019-11-17 13:00:00 13.1 7 Norte 18 Norte 0 -- -- 54
2019-11-17 12:00:00 13.2 3 Noroeste 12 Noroeste 0 -- -- 54
2019-11-17 11:00:00 12.3 3 Noroeste 17 Noroeste 0 -- -- 57
2019-11-17 10:00:00 10.6 5 Noroeste 22 Noroeste 0 -- -- 60
2019-11-17 09:00:00 8.4 6 Norte 15 Norte 0 -- -- 66
2019-11-17 08:00:00 6.6 7 Norte 14 Norte 0 -- -- 74
2019-11-17 07:00:00 5 3 Norte 10 Norte 0 -- -- 80
2019-11-17 06:00:00 6.7 4 Noroeste 21 Noroeste 0 -- -- 73
2019-11-17 05:00:00 8.3 8 Norte 23 Norte 0 -- -- 65
2019-11-17 04:00:00 6.9 5 Noroeste 15 Noroeste 0 -- -- 73
2019-11-17 03:00:00 6.7 7 Norte 18 Noroeste 0 -- -- 73
2019-11-17 02:00:00 6 3 Norte 10 Noroeste 0 -- -- 76
2019-11-17 01:00:00 7 2 Norte 8 Noroeste 0 -- -- 72
2019-11-17 00:00:00 8.6 3 Norte 21 Noroeste 0 -- -- 65
2019-11-16 23:00:00 9.5 10 Norte 27 Noroeste 0 -- -- 61
2019-11-16 22:00:00 9.7 10 Norte 25 Noroeste 0 -- -- 60
2019-11-16 21:00:00 9.6 12 Noroeste 28 Noroeste 0 -- -- 60
2019-11-16 20:00:00 8.9 7 Noroeste 21 Noroeste 0 -- -- 64
2019-11-16 19:00:00 8.5 9 Noroeste 17 Noroeste 0 -- -- 63
2019-11-16 18:00:00 8.3 5 Noroeste 20 Norte 0 -- -- 60
2019-11-16 17:00:00 10.6 7 Norte 19 Noroeste 0 -- -- 50
2019-11-16 16:00:00 12.6 12 Noroeste 27 Noroeste 0 -- -- 45
2019-11-16 15:00:00 13.2 7 Sur 22 Oeste 0 -- -- 63
2019-11-16 14:00:00 14.1 5 Norte 19 Noroeste 0 -- -- 58
2019-11-16 13:00:00 13 3 Noroeste 22 Norte 0 -- -- 59
2019-11-16 12:00:00 12.5 9 Noroeste 21 Noroeste 0 -- -- 61
2019-11-16 11:00:00 10.5 12 Norte 23 Nordeste 0 -- -- 68
2019-11-16 10:00:00 8.6 12 Norte 22 Nordeste 0 -- -- 71
2019-11-16 09:00:00 7.9 13 Norte 26 Nordeste 0 -- -- 74
2019-11-16 08:00:00 7.3 12 Nordeste 26 Nordeste 0 -- -- 76
2019-11-16 07:00:00 5.4 2 Oeste 10 Nordeste 0 -- -- 85
2019-11-16 06:00:00 7.1 7 Nordeste 22 Norte 0 -- -- 76
2019-11-16 05:00:00 6.4 12 Norte 25 Norte 0 -- -- 77
2019-11-16 04:00:00 6.4 11 Norte 21 Norte 0 -- -- 77
2019-11-16 03:00:00 6.6 6 Norte 15 Norte 0 -- -- 75
2019-11-16 02:00:00 5.7 3 Oeste 15 Noroeste 0 -- -- 80
2019-11-16 01:00:00 6.3 4 Norte 12 Nordeste 0 -- -- 78
2019-11-16 00:00:00 6.5 4 Norte 13 Nordeste 0 -- -- 78
2019-11-15 23:00:00 6.9 5 Norte 16 Noroeste 0 -- -- 75
2019-11-15 22:00:00 7.8 0 Calma 14 Norte 0 -- -- 71
2019-11-15 21:00:00 7.8 0 Calma 18 Norte 0 -- -- 72
2019-11-15 20:00:00 10.3 10 Norte 24 Norte 0 -- -- 60
2019-11-15 19:00:00 10.3 5 Norte 14 Noroeste 0 -- -- 60
2019-11-15 18:00:00 9.5 4 Norte 14 Norte 0 -- -- 66
2019-11-15 17:00:00 10.9 4 Oeste 20 Noroeste 0 -- -- 56
2019-11-15 16:00:00 11.8 13 Noroeste 32 Norte 0 -- -- 52
2019-11-15 15:00:00 13.5 12 Noroeste 29 Noroeste 0 -- -- 48
2019-11-15 14:00:00 13.3 6 Norte 23 Norte 0 -- -- 52
2019-11-15 13:00:00 11.7 11 Noroeste 23 Noroeste 0 -- -- 62
2019-11-15 12:00:00 10.6 9 Noroeste 24 Noroeste 0 -- -- 63
2019-11-15 11:00:00 9.4 8 Noroeste 19 Noroeste 0 -- -- 68
2019-11-15 10:00:00 8.1 5 Norte 15 Nordeste 0 -- -- 74
2019-11-15 09:00:00 7.6 4 Noroeste 13 Noroeste 0 -- -- 74
2019-11-15 08:00:00 6.7 5 Noroeste 9 Noroeste 0 -- -- 79
2019-11-15 07:00:00 6.3 0 Calma 5 Norte 0 -- -- 82
2019-11-15 06:00:00 7.3 3 Sur 6 Sur 0 -- -- 76
2019-11-15 05:00:00 9 4 Noroeste 18 Noroeste 0 -- -- 68
2019-11-15 04:00:00 7.6 6 Norte 12 Norte 0 -- -- 69
2019-11-15 03:00:00 6.5 4 Norte 8 Norte 0 -- -- 84
2019-11-15 02:00:00 5.4 0 Calma 4 Norte 0 -- -- 87
2019-11-15 01:00:00 5.9 0 Calma 5 Noroeste 0 -- -- 90
2019-11-15 00:00:00 5.1 0 Calma 6 Noroeste 0 -- -- 90
2019-11-14 23:00:00 5.8 4 Norte 9 Noroeste 0 -- -- 85
2019-11-14 22:00:00 5.9 3 Noroeste 10 Noroeste 0 -- -- 82
2019-11-14 21:00:00 5.7 3 Noroeste 7 Norte 0 -- -- 87
2019-11-14 20:00:00 5.6 4 Norte 7 Norte 0 -- -- 90
2019-11-14 19:00:00 7.6 3 Norte 17 Noroeste 0 -- -- 82
2019-11-14 18:00:00 7.5 0 Calma 5 Nordeste 0 -- -- 86
2019-11-14 17:00:00 9.8 5 Nordeste 21 Norte 0 -- -- 71
2019-11-14 16:00:00 10.2 9 Norte 14 Noroeste 0 -- -- 71
2019-11-14 15:00:00 10.7 3 Noroeste 17 Norte 0 -- -- 79
2019-11-14 14:00:00 11.4 6 Norte 26 Norte 0 -- -- 70
2019-11-14 13:00:00 12.1 5 Oeste 28 Noroeste 0 -- -- 78
2019-11-14 12:00:00 12.2 10 Norte 31 Noroeste 0.6 -- -- 82
2019-11-14 11:00:00 12.5 14 Noroeste 35 Noroeste 0.2 -- -- 84
2019-11-14 10:00:00 13.2 3 Noroeste 8 Noroeste 0.2 -- -- 97
2019-11-14 09:00:00 13 4 Noroeste 10 Norte 0 -- -- 96
2019-11-14 08:00:00 13 5 Norte 15 Noroeste 0 -- -- 95
2019-11-14 07:00:00 13.9 4 Norte 28 Norte 7.2 -- -- 92
2019-11-14 06:00:00 14.9 8 Nordeste 38 Norte 0.6 -- -- 89
2019-11-14 05:00:00 12 6 Norte 20 Noroeste 0 -- -- 85
2019-11-14 04:00:00 11.9 4 Norte 13 Norte 0 -- -- 75
2019-11-14 03:00:00 11.4 7 Norte 16 Noroeste 0 -- -- 69
2019-11-14 02:00:00 10.2 5 Norte 16 Norte 0 -- -- 70
2019-11-14 01:00:00 8.1 7 Norte 12 Norte 0 -- -- 81
2019-11-14 00:00:00 7.5 4 Oeste 8 Norte 0 -- -- 90
2019-11-13 23:00:00 8 3 Noroeste 7 Noroeste 0 -- -- 91
2019-11-13 22:00:00 9.1 4 Noroeste 17 Noroeste 0 -- -- 91
2019-11-13 21:00:00 9 3 Noroeste 9 Norte 0 -- -- 97
2019-11-13 20:00:00 9.2 3 Norte 10 Norte 0 -- -- 95
2019-11-13 19:00:00 9.4 6 Norte 10 Norte 0 -- -- 93
2019-11-13 18:00:00 9.5 2 Noroeste 6 Noroeste 0 -- -- 95
2019-11-13 17:00:00 10.4 0 Calma 6 Norte 0 -- -- 92
2019-11-13 16:00:00 11.7 3 Noroeste 8 Norte 0 -- -- 87
2019-11-13 15:00:00 14.7 0 Calma 7 Noroeste 0 -- -- 80
2019-11-13 14:00:00 13.2 4 Noroeste 9 Noroeste 0 -- -- 83
2019-11-13 13:00:00 11.5 3 Noroeste 5 Norte 0.2 -- -- 95
2019-11-13 12:00:00 11 2 Noroeste 19 Norte 0.2 -- -- 93
2019-11-13 11:00:00 10.6 0 Calma 4 Oeste 0.4 -- -- 95
2019-11-13 10:00:00 9.8 0 Calma 11 Nordeste 2.4 -- -- 92
2019-11-13 09:00:00 10.8 0 Calma 13 Noroeste 0.2 -- -- 85
2019-11-13 08:00:00 12.1 5 Noroeste 19 Noroeste 0 -- -- 66
2019-11-13 07:00:00 11.4 7 Norte 17 Norte 0 -- -- 67
2019-11-13 06:00:00 11.2 8 Noroeste 17 Norte 0 -- -- 67
2019-11-13 05:00:00 8.9 6 Nordeste 13 Nordeste 0 -- -- 77
2019-11-13 04:00:00 8.2 0 Calma 8 Noroeste 0 -- -- 79
2019-11-13 03:00:00 7.6 0 Calma 4 Norte 0 -- -- 80
2019-11-13 02:00:00 7.9 0 Calma 4 Sur 0 -- -- 79
2019-11-13 01:00:00 9 0 Calma 7 Norte 0 -- -- 74
2019-11-13 00:00:00 9.1 2 Sur 7 Sur 0 -- -- 74
2019-11-12 23:00:00 9.9 3 Noroeste 18 Noroeste 0 -- -- 71
2019-11-12 22:00:00 11.5 5 Norte 28 Noroeste 0 -- -- 64
2019-11-12 21:00:00 12.7 14 Noroeste 27 Noroeste 0 -- -- 59
2019-11-12 20:00:00 13.4 8 Noroeste 34 Noroeste 0 -- -- 57
2019-11-12 19:00:00 13.9 14 Norte 28 Norte 0 -- -- 55
2019-11-12 18:00:00 13 8 Norte 18 Noroeste 0 -- -- 57
2019-11-12 17:00:00 15.6 5 Noroeste 35 Noroeste 0 -- -- 47
2019-11-12 16:00:00 16.4 12 Noroeste 31 Noroeste 0 -- -- 43
2019-11-12 15:00:00 17.2 14 Noroeste 34 Noroeste 0 -- -- 40
2019-11-12 14:00:00 17.5 12 Noroeste 35 Noroeste 0 -- -- 36
2019-11-12 13:00:00 16.5 7 Noroeste 23 Noroeste 0 -- -- 39
2019-11-12 12:00:00 15.1 6 Noroeste 18 Noroeste 0 -- -- 43
2019-11-12 11:00:00 14.2 4 Oeste 15 Norte 0 -- -- 49
2019-11-12 10:00:00 12.7 7 Noroeste 18 Noroeste 0 -- -- 50
2019-11-12 09:00:00 11.7 10 Noroeste 29 Noroeste 0 -- -- 53
2019-11-12 08:00:00 9.8 18 Noroeste 35 Noroeste 0 -- -- 58
2019-11-12 07:00:00 9.7 13 Noroeste 30 Noroeste 0 -- -- 59
2019-11-12 06:00:00 9.6 7 Norte 27 Noroeste 0 -- -- 60
2019-11-12 05:00:00 9.6 13 Noroeste 27 Noroeste 0 -- -- 62
2019-11-12 04:00:00 10 11 Noroeste 29 Norte 0 -- -- 61
2019-11-12 03:00:00 11 13 Noroeste 32 Noroeste 0 -- -- 58
2019-11-12 02:00:00 11.4 13 Noroeste 28 Norte 0 -- -- 60
2019-11-12 01:00:00 11.5 13 Noroeste 23 Noroeste 0 -- -- 62
2019-11-12 00:00:00 10.3 3 Sudoeste 13 Noroeste 0 -- -- 72
2019-11-11 23:00:00 11.6 4 Noroeste 24 Norte 0 -- -- 69
2019-11-11 22:00:00 11.8 6 Noroeste 19 Norte 0 -- -- 69
2019-11-11 21:00:00 10.8 4 Noroeste 12 Noroeste 0 -- -- 71
2019-11-11 20:00:00 12.4 7 Noroeste 22 Noroeste 0 -- -- 64
2019-11-11 19:00:00 12.5 12 Noroeste 23 Noroeste 0 -- -- 59
2019-11-11 18:00:00 12.4 4 Noroeste 17 Noroeste 0 -- -- 54
2019-11-11 17:00:00 13.9 7 Noroeste 26 Noroeste 0 -- -- 45
2019-11-11 16:00:00 15.1 9 Noroeste 21 Noroeste 0 -- -- 42
2019-11-11 15:00:00 16 5 Oeste 26 Noroeste 0 -- -- 40
2019-11-11 14:00:00 16.1 13 Noroeste 29 Noroeste 0 -- -- 36
2019-11-11 13:00:00 16.2 9 Noroeste 34 Noroeste 0 -- -- 33
2019-11-11 12:00:00 14.1 12 Noroeste 34 Noroeste 0 -- -- 39
2019-11-11 11:00:00 12.3 14 Norte 32 Noroeste 0 -- -- 43
2019-11-11 10:00:00 11.9 14 Noroeste 34 Noroeste 0 -- -- 45
2019-11-11 09:00:00 10.4 13 Norte 35 Noroeste 0 -- -- 47
2019-11-11 08:00:00 9.5 9 Noroeste 43 Noroeste 0 -- -- 48
2019-11-11 07:00:00 9.5 19 Noroeste 39 Noroeste 0 -- -- 48
2019-11-11 06:00:00 8.5 16 Noroeste 37 Noroeste 0 -- -- 54
2019-11-11 05:00:00 9.9 12 Noroeste 37 Noroeste 0 -- -- 47
2019-11-11 04:00:00 9.7 17 Noroeste 41 Noroeste 0 -- -- 49
2019-11-11 03:00:00 9.1 13 Noroeste 30 Noroeste 0 -- -- 54
2019-11-11 02:00:00 9.1 13 Noroeste 36 Noroeste 0 -- -- 56
2019-11-11 01:00:00 9.9 14 Noroeste 29 Noroeste 0 -- -- 54
2019-11-11 00:00:00 8.6 2 Oeste 18 Este 0 -- -- 65